Terminal Aerodrome Forecast
Issued by NWS Wilmington, NC

Home | Current Version | Previous Version | Text Only | Print | Product List | Glossary On
Versions: 1 2 3 4 5 6 7 8 9 10 11 12 13 14
000
FTUS42 KILM 212300
TAFMYR
TAF
KMYR 212322Z 2200/2224 04010KT P6SM -RA BKN020 OVC060
      TEMPO 2203/2205 SCT008 BKN015
     FM220500 03009KT 6SM -RA BR BKN008 OVC012
     FM221000 01008KT 5SM -RA BR BKN004 OVC008
     FM221500 35009KT P6SM OVC007
      AMD LTD TO CLD VIS AND WIND 2204/2211=

USA.gov is the U.S. government's official web portal to all federal, state and local government web resources and services.